sensor_id;sensor_type;location;lat;lon;timestamp;P1;durP1;ratioP1;P2;durP2;ratioP2
1682;SDS011;13252;53.596;10.060;2023-07-13T00:01:17;6.20;;;3.47;;
1682;SDS011;13252;53.596;10.060;2023-07-13T00:03:45;6.20;;;3.43;;
1682;SDS011;13252;53.596;10.060;2023-07-13T00:06:14;7.33;;;3.87;;
1682;SDS011;13252;53.596;10.060;2023-07-13T00:08:42;7.50;;;3.70;;
1682;SDS011;13252;53.596;10.060;2023-07-13T00:11:10;11.67;;;4.77;;
1682;SDS011;13252;53.596;10.060;2023-07-13T00:13:37;6.63;;;2.87;;
1682;SDS011;13252;53.596;10.060;2023-07-13T00:16:05;6.60;;;4.10;;
1682;SDS011;13252;53.596;10.060;2023-07-13T00:18:34;7.20;;;4.20;;
1682;SDS011;13252;53.596;10.060;2023-07-13T00:21:01;8.27;;;4.13;;
1682;SDS011;13252;53.596;10.060;2023-07-13T00:23:33;9.63;;;4.00;;
1682;SDS011;13252;53.596;10.060;2023-07-13T00:26:01;7.70;;;3.80;;
1682;SDS011;13252;53.596;10.060;2023-07-13T00:28:29;7.67;;;4.10;;
1682;SDS011;13252;53.596;10.060;2023-07-13T00:30:57;6.00;;;3.70;;
1682;SDS011;13252;53.596;10.060;2023-07-13T00:33:26;5.13;;;3.90;;
1682;SDS011;13252;53.596;10.060;2023-07-13T00:35:56;13.53;;;4.20;;
1682;SDS011;13252;53.596;10.060;2023-07-13T00:38:25;7.77;;;3.90;;
1682;SDS011;13252;53.596;10.060;2023-07-13T00:40:54;16.00;;;3.90;;
1682;SDS011;13252;53.596;10.060;2023-07-13T00:43:23;8.73;;;4.10;;
1682;SDS011;13252;53.596;10.060;2023-07-13T00:46:09;7.53;;;4.53;;
1682;SDS011;13252;53.596;10.060;2023-07-13T00:48:49;13.60;;;5.43;;
1682;SDS011;13252;53.596;10.060;2023-07-13T00:51:19;7.53;;;4.80;;
1682;SDS011;13252;53.596;10.060;2023-07-13T00:53:50;12.30;;;5.37;;
1682;SDS011;13252;53.596;10.060;2023-07-13T00:56:19;11.47;;;4.70;;
1682;SDS011;13252;53.596;10.060;2023-07-13T00:58:47;12.03;;;4.67;;
1682;SDS011;13252;53.596;10.060;2023-07-13T01:01:17;13.87;;;4.20;;
1682;SDS011;13252;53.596;10.060;2023-07-13T01:03:45;10.20;;;4.27;;
1682;SDS011;13252;53.596;10.060;2023-07-13T01:06:13;7.77;;;4.43;;
1682;SDS011;13252;53.596;10.060;2023-07-13T01:08:41;11.40;;;4.80;;
1682;SDS011;13252;53.596;10.060;2023-07-13T01:11:09;8.57;;;4.80;;
1682;SDS011;13252;53.596;10.060;2023-07-13T01:13:38;12.27;;;4.60;;
1682;SDS011;13252;53.596;10.060;2023-07-13T01:16:12;7.53;;;4.70;;
1682;SDS011;13252;53.596;10.060;2023-07-13T01:18:52;7.33;;;4.17;;
1682;SDS011;13252;53.596;10.060;2023-07-13T01:21:22;10.33;;;5.03;;
1682;SDS011;13252;53.596;10.060;2023-07-13T01:23:50;8.10;;;4.60;;
1682;SDS011;13252;53.596;10.060;2023-07-13T01:26:17;5.40;;;4.33;;
1682;SDS011;13252;53.596;10.060;2023-07-13T01:28:45;8.37;;;4.17;;
1682;SDS011;13252;53.596;10.060;2023-07-13T01:31:13;8.27;;;4.77;;
1682;SDS011;13252;53.596;10.060;2023-07-13T01:33:41;8.67;;;4.80;;
1682;SDS011;13252;53.596;10.060;2023-07-13T01:36:09;10.07;;;4.40;;
1682;SDS011;13252;53.596;10.060;2023-07-13T01:38:39;10.10;;;4.90;;
1682;SDS011;13252;53.596;10.060;2023-07-13T01:41:10;9.70;;;5.10;;
1682;SDS011;13252;53.596;10.060;2023-07-13T01:43:38;7.90;;;4.60;;
1682;SDS011;13252;53.596;10.060;2023-07-13T01:46:06;11.33;;;5.20;;
1682;SDS011;13252;53.596;10.060;2023-07-13T01:48:49;5.87;;;4.97;;
1682;SDS011;13252;53.596;10.060;2023-07-13T01:51:17;10.77;;;5.50;;
1682;SDS011;13252;53.596;10.060;2023-07-13T01:53:47;7.10;;;4.60;;
1682;SDS011;13252;53.596;10.060;2023-07-13T01:56:15;10.93;;;5.20;;
1682;SDS011;13252;53.596;10.060;2023-07-13T01:58:44;5.50;;;4.50;;
1682;SDS011;13252;53.596;10.060;2023-07-13T02:01:12;9.20;;;5.07;;
1682;SDS011;13252;53.596;10.060;2023-07-13T02:03:40;8.13;;;4.63;;
1682;SDS011;13252;53.596;10.060;2023-07-13T02:06:07;5.97;;;4.70;;
1682;SDS011;13252;53.596;10.060;2023-07-13T02:08:36;7.50;;;5.70;;
1682;SDS011;13252;53.596;10.060;2023-07-13T02:11:06;10.27;;;5.90;;
1682;SDS011;13252;53.596;10.060;2023-07-13T02:13:34;12.37;;;5.70;;
1682;SDS011;13252;53.596;10.060;2023-07-13T02:16:02;10.37;;;6.70;;
1682;SDS011;13252;53.596;10.060;2023-07-13T02:18:30;8.00;;;5.60;;
1682;SDS011;13252;53.596;10.060;2023-07-13T02:20:58;9.07;;;6.77;;
1682;SDS011;13252;53.596;10.060;2023-07-13T02:23:26;12.57;;;6.30;;
1682;SDS011;13252;53.596;10.060;2023-07-13T02:25:54;8.17;;;6.37;;
1682;SDS011;13252;53.596;10.060;2023-07-13T02:28:24;10.07;;;6.73;;
1682;SDS011;13252;53.596;10.060;2023-07-13T02:30:52;16.37;;;10.93;;
1682;SDS011;13252;53.596;10.060;2023-07-13T02:33:20;25.10;;;17.57;;
1682;SDS011;13252;53.596;10.060;2023-07-13T02:35:48;12.97;;;7.87;;
1682;SDS011;13252;53.596;10.060;2023-07-13T02:38:17;16.73;;;8.80;;
1682;SDS011;13252;53.596;10.060;2023-07-13T02:40:45;11.53;;;8.93;;
1682;SDS011;13252;53.596;10.060;2023-07-13T02:43:13;10.07;;;7.40;;
1682;SDS011;13252;53.596;10.060;2023-07-13T02:45:44;8.40;;;6.70;;
1682;SDS011;13252;53.596;10.060;2023-07-13T02:48:13;8.27;;;6.97;;
1682;SDS011;13252;53.596;10.060;2023-07-13T02:50:41;12.97;;;10.17;;
1682;SDS011;13252;53.596;10.060;2023-07-13T02:53:09;16.33;;;8.53;;
1682;SDS011;13252;53.596;10.060;2023-07-13T02:55:36;12.90;;;7.73;;
1682;SDS011;13252;53.596;10.060;2023-07-13T02:58:04;12.20;;;7.73;;
1682;SDS011;13252;53.596;10.060;2023-07-13T03:00:32;9.20;;;8.00;;
1682;SDS011;13252;53.596;10.060;2023-07-13T03:03:01;9.37;;;7.60;;
1682;SDS011;13252;53.596;10.060;2023-07-13T03:05:30;10.50;;;7.53;;
1682;SDS011;13252;53.596;10.060;2023-07-13T03:07:57;10.97;;;8.00;;
1682;SDS011;13252;53.596;10.060;2023-07-13T03:10:26;11.60;;;8.10;;
1682;SDS011;13252;53.596;10.060;2023-07-13T03:12:54;12.30;;;8.10;;
1682;SDS011;13252;53.596;10.060;2023-07-13T03:15:25;11.43;;;8.03;;
1682;SDS011;13252;53.596;10.060;2023-07-13T03:17:56;10.30;;;9.20;;
1682;SDS011;13252;53.596;10.060;2023-07-13T03:20:25;11.37;;;9.17;;
1682;SDS011;13252;53.596;10.060;2023-07-13T03:22:53;16.43;;;8.90;;
1682;SDS011;13252;53.596;10.060;2023-07-13T03:25:21;12.70;;;9.53;;
1682;SDS011;13252;53.596;10.060;2023-07-13T03:27:49;11.43;;;8.83;;
1682;SDS011;13252;53.596;10.060;2023-07-13T03:30:17;12.63;;;8.80;;
1682;SDS011;13252;53.596;10.060;2023-07-13T03:32:46;13.10;;;9.10;;
1682;SDS011;13252;53.596;10.060;2023-07-13T03:35:14;9.90;;;8.87;;
1682;SDS011;13252;53.596;10.060;2023-07-13T03:37:44;10.57;;;8.30;;
1682;SDS011;13252;53.596;10.060;2023-07-13T03:40:17;10.50;;;8.90;;
1682;SDS011;13252;53.596;10.060;2023-07-13T03:42:45;15.70;;;9.13;;
1682;SDS011;13252;53.596;10.060;2023-07-13T03:45:16;9.80;;;7.90;;
1682;SDS011;13252;53.596;10.060;2023-07-13T03:47:44;10.43;;;8.13;;
1682;SDS011;13252;53.596;10.060;2023-07-13T03:50:11;10.00;;;7.13;;
1682;SDS011;13252;53.596;10.060;2023-07-13T03:52:40;11.70;;;6.87;;
1682;SDS011;13252;53.596;10.060;2023-07-13T03:55:09;11.83;;;8.37;;
1682;SDS011;13252;53.596;10.060;2023-07-13T03:57:37;13.23;;;8.27;;
1682;SDS011;13252;53.596;10.060;2023-07-13T04:00:08;13.83;;;7.93;;
1682;SDS011;13252;53.596;10.060;2023-07-13T04:02:41;8.77;;;7.40;;
1682;SDS011;13252;53.596;10.060;2023-07-13T04:05:09;10.80;;;7.73;;
1682;SDS011;13252;53.596;10.060;2023-07-13T04:07:37;12.07;;;7.20;;
1682;SDS011;13252;53.596;10.060;2023-07-13T04:10:06;12.40;;;7.70;;
1682;SDS011;13252;53.596;10.060;2023-07-13T04:12:35;10.37;;;7.70;;
1682;SDS011;13252;53.596;10.060;2023-07-13T04:15:03;13.27;;;7.37;;
1682;SDS011;13252;53.596;10.060;2023-07-13T04:17:32;12.80;;;7.10;;
1682;SDS011;13252;53.596;10.060;2023-07-13T04:19:59;9.47;;;6.90;;
1682;SDS011;13252;53.596;10.060;2023-07-13T04:22:27;19.73;;;7.47;;
1682;SDS011;13252;53.596;10.060;2023-07-13T04:24:55;9.87;;;6.23;;
1682;SDS011;13252;53.596;10.060;2023-07-13T04:27:22;8.83;;;5.23;;
1682;SDS011;13252;53.596;10.060;2023-07-13T04:29:52;8.87;;;5.10;;
1682;SDS011;13252;53.596;10.060;2023-07-13T04:32:20;9.83;;;4.73;;
1682;SDS011;13252;53.596;10.060;2023-07-13T04:34:48;7.47;;;4.40;;
1682;SDS011;13252;53.596;10.060;2023-07-13T04:37:19;13.57;;;4.60;;
1682;SDS011;13252;53.596;10.060;2023-07-13T04:39:47;9.07;;;3.60;;
1682;SDS011;13252;53.596;10.060;2023-07-13T04:42:15;11.53;;;4.83;;
1682;SDS011;13252;53.596;10.060;2023-07-13T04:44:46;7.67;;;4.37;;
1682;SDS011;13252;53.596;10.060;2023-07-13T04:47:16;9.63;;;4.13;;
1682;SDS011;13252;53.596;10.060;2023-07-13T04:49:44;12.10;;;4.50;;
1682;SDS011;13252;53.596;10.060;2023-07-13T04:52:13;16.67;;;5.47;;
1682;SDS011;13252;53.596;10.060;2023-07-13T04:54:40;9.33;;;4.33;;
1682;SDS011;13252;53.596;10.060;2023-07-13T04:57:08;8.90;;;5.23;;
1682;SDS011;13252;53.596;10.060;2023-07-13T04:59:36;10.97;;;4.10;;
1682;SDS011;13252;53.596;10.060;2023-07-13T05:02:04;14.00;;;4.63;;
1682;SDS011;13252;53.596;10.060;2023-07-13T05:04:33;6.97;;;3.50;;
1682;SDS011;13252;53.596;10.060;2023-07-13T05:07:01;8.07;;;3.90;;
1682;SDS011;13252;53.596;10.060;2023-07-13T05:09:30;8.47;;;4.00;;
1682;SDS011;13252;53.596;10.060;2023-07-13T05:11:58;15.63;;;4.47;;
1682;SDS011;13252;53.596;10.060;2023-07-13T05:14:25;10.13;;;3.77;;
1682;SDS011;13252;53.596;10.060;2023-07-13T05:16:53;12.97;;;5.33;;
1682;SDS011;13252;53.596;10.060;2023-07-13T05:19:21;10.00;;;3.70;;
1682;SDS011;13252;53.596;10.060;2023-07-13T05:21:50;13.97;;;4.63;;
1682;SDS011;13252;53.596;10.060;2023-07-13T05:24:17;15.33;;;4.40;;
1682;SDS011;13252;53.596;10.060;2023-07-13T05:26:51;13.63;;;3.97;;
1682;SDS011;13252;53.596;10.060;2023-07-13T05:29:19;13.13;;;4.90;;
1682;SDS011;13252;53.596;10.060;2023-07-13T05:31:47;11.27;;;3.90;;
1682;SDS011;13252;53.596;10.060;2023-07-13T05:34:15;8.87;;;3.73;;
1682;SDS011;13252;53.596;10.060;2023-07-13T05:36:43;14.00;;;4.40;;
1682;SDS011;13252;53.596;10.060;2023-07-13T05:39:12;9.60;;;3.80;;
1682;SDS011;13252;53.596;10.060;2023-07-13T05:41:40;12.50;;;4.20;;
1682;SDS011;13252;53.596;10.060;2023-07-13T05:44:08;19.70;;;4.10;;
1682;SDS011;13252;53.596;10.060;2023-07-13T05:46:35;12.53;;;4.07;;
1682;SDS011;13252;53.596;10.060;2023-07-13T05:49:03;10.27;;;4.40;;
1682;SDS011;13252;53.596;10.060;2023-07-13T05:51:32;9.63;;;3.87;;
1682;SDS011;13252;53.596;10.060;2023-07-13T05:54:00;15.27;;;4.60;;
1682;SDS011;13252;53.596;10.060;2023-07-13T05:56:29;14.77;;;6.13;;
1682;SDS011;13252;53.596;10.060;2023-07-13T05:58:57;13.63;;;4.73;;
1682;SDS011;13252;53.596;10.060;2023-07-13T06:01:24;13.53;;;5.60;;
1682;SDS011;13252;53.596;10.060;2023-07-13T06:03:52;16.33;;;4.73;;
1682;SDS011;13252;53.596;10.060;2023-07-13T06:06:20;9.40;;;5.20;;
1682;SDS011;13252;53.596;10.060;2023-07-13T06:08:48;13.87;;;4.33;;
1682;SDS011;13252;53.596;10.060;2023-07-13T06:11:17;17.80;;;5.37;;
1682;SDS011;13252;53.596;10.060;2023-07-13T06:13:47;16.03;;;5.23;;
1682;SDS011;13252;53.596;10.060;2023-07-13T06:16:15;13.53;;;4.03;;
1682;SDS011;13252;53.596;10.060;2023-07-13T06:18:43;14.77;;;4.40;;
1682;SDS011;13252;53.596;10.060;2023-07-13T06:21:11;13.43;;;5.03;;
1682;SDS011;13252;53.596;10.060;2023-07-13T06:23:41;12.63;;;4.20;;
1682;SDS011;13252;53.596;10.060;2023-07-13T06:26:09;16.03;;;4.70;;
1682;SDS011;13252;53.596;10.060;2023-07-13T06:28:37;9.90;;;4.13;;
1682;SDS011;13252;53.596;10.060;2023-07-13T06:31:07;12.70;;;4.80;;
1682;SDS011;13252;53.596;10.060;2023-07-13T06:33:37;12.80;;;4.43;;
1682;SDS011;13252;53.596;10.060;2023-07-13T06:36:05;13.67;;;4.00;;
1682;SDS011;13252;53.596;10.060;2023-07-13T06:38:34;13.23;;;4.87;;
1682;SDS011;13252;53.596;10.060;2023-07-13T06:41:02;14.90;;;4.30;;
1682;SDS011;13252;53.596;10.060;2023-07-13T06:43:30;12.93;;;4.63;;
1682;SDS011;13252;53.596;10.060;2023-07-13T06:45:59;14.17;;;4.60;;
1682;SDS011;13252;53.596;10.060;2023-07-13T06:48:28;14.60;;;4.17;;
1682;SDS011;13252;53.596;10.060;2023-07-13T06:50:58;18.13;;;3.60;;
1682;SDS011;13252;53.596;10.060;2023-07-13T06:53:25;18.07;;;4.37;;
1682;SDS011;13252;53.596;10.060;2023-07-13T06:55:53;12.53;;;3.73;;
1682;SDS011;13252;53.596;10.060;2023-07-13T06:58:21;10.77;;;3.20;;
1682;SDS011;13252;53.596;10.060;2023-07-13T07:00:49;7.33;;;3.57;;
1682;SDS011;13252;53.596;10.060;2023-07-13T07:03:18;10.57;;;3.50;;
1682;SDS011;13252;53.596;10.060;2023-07-13T07:05:47;16.87;;;4.23;;
1682;SDS011;13252;53.596;10.060;2023-07-13T07:08:15;15.10;;;4.83;;
1682;SDS011;13252;53.596;10.060;2023-07-13T07:10:42;10.70;;;3.23;;
1682;SDS011;13252;53.596;10.060;2023-07-13T07:13:11;8.80;;;3.20;;
1682;SDS011;13252;53.596;10.060;2023-07-13T07:15:38;11.20;;;4.10;;
1682;SDS011;13252;53.596;10.060;2023-07-13T07:18:06;10.97;;;3.83;;
1682;SDS011;13252;53.596;10.060;2023-07-13T07:20:33;12.07;;;4.27;;
1682;SDS011;13252;53.596;10.060;2023-07-13T07:23:02;11.13;;;3.60;;
1682;SDS011;13252;53.596;10.060;2023-07-13T07:25:30;18.00;;;5.17;;
1682;SDS011;13252;53.596;10.060;2023-07-13T07:27:58;9.13;;;4.63;;
1682;SDS011;13252;53.596;10.060;2023-07-13T07:30:29;8.57;;;3.57;;
1682;SDS011;13252;53.596;10.060;2023-07-13T07:33:00;10.13;;;3.70;;
1682;SDS011;13252;53.596;10.060;2023-07-13T07:35:31;18.97;;;3.77;;
1682;SDS011;13252;53.596;10.060;2023-07-13T07:38:08;10.60;;;3.17;;
1682;SDS011;13252;53.596;10.060;2023-07-13T07:40:36;20.30;;;4.43;;
1682;SDS011;13252;53.596;10.060;2023-07-13T07:43:07;15.13;;;3.40;;
1682;SDS011;13252;53.596;10.060;2023-07-13T07:45:35;12.70;;;3.50;;
1682;SDS011;13252;53.596;10.060;2023-07-13T07:48:03;9.23;;;3.30;;
1682;SDS011;13252;53.596;10.060;2023-07-13T07:50:31;17.43;;;4.00;;
1682;SDS011;13252;53.596;10.060;2023-07-13T07:52:59;18.70;;;3.37;;
1682;SDS011;13252;53.596;10.060;2023-07-13T07:55:29;15.10;;;3.37;;
1682;SDS011;13252;53.596;10.060;2023-07-13T07:58:03;9.40;;;3.30;;
1682;SDS011;13252;53.596;10.060;2023-07-13T08:00:50;12.43;;;3.60;;
1682;SDS011;13252;53.596;10.060;2023-07-13T08:03:21;7.80;;;3.33;;
1682;SDS011;13252;53.596;10.060;2023-07-13T08:05:52;11.13;;;3.37;;
1682;SDS011;13252;53.596;10.060;2023-07-13T08:08:22;11.50;;;4.43;;
1682;SDS011;13252;53.596;10.060;2023-07-13T08:10:52;11.63;;;3.43;;
1682;SDS011;13252;53.596;10.060;2023-07-13T08:13:24;9.40;;;3.57;;
1682;SDS011;13252;53.596;10.060;2023-07-13T08:15:52;13.20;;;4.47;;
1682;SDS011;13252;53.596;10.060;2023-07-13T08:18:20;13.30;;;3.00;;
1682;SDS011;13252;53.596;10.060;2023-07-13T08:20:47;16.07;;;3.67;;
1682;SDS011;13252;53.596;10.060;2023-07-13T08:23:15;9.20;;;2.87;;
1682;SDS011;13252;53.596;10.060;2023-07-13T08:25:49;9.80;;;3.20;;
1682;SDS011;13252;53.596;10.060;2023-07-13T08:28:19;6.60;;;3.43;;
1682;SDS011;13252;53.596;10.060;2023-07-13T08:30:47;12.83;;;3.20;;
1682;SDS011;13252;53.596;10.060;2023-07-13T08:33:15;15.83;;;3.70;;
1682;SDS011;13252;53.596;10.060;2023-07-13T08:35:45;10.83;;;2.87;;
1682;SDS011;13252;53.596;10.060;2023-07-13T08:38:13;10.77;;;3.83;;
1682;SDS011;13252;53.596;10.060;2023-07-13T08:40:40;15.03;;;3.50;;
1682;SDS011;13252;53.596;10.060;2023-07-13T08:43:12;14.10;;;3.23;;
1682;SDS011;13252;53.596;10.060;2023-07-13T08:45:42;6.83;;;2.50;;
1682;SDS011;13252;53.596;10.060;2023-07-13T08:48:13;12.93;;;3.10;;
1682;SDS011;13252;53.596;10.060;2023-07-13T08:50:46;10.60;;;3.37;;
1682;SDS011;13252;53.596;10.060;2023-07-13T08:53:29;6.47;;;2.60;;
1682;SDS011;13252;53.596;10.060;2023-07-13T08:56:01;11.80;;;3.50;;
1682;SDS011;13252;53.596;10.060;2023-07-13T08:58:30;8.30;;;2.80;;
1682;SDS011;13252;53.596;10.060;2023-07-13T09:01:02;7.97;;;2.97;;
1682;SDS011;13252;53.596;10.060;2023-07-13T09:03:38;11.37;;;2.90;;
1682;SDS011;13252;53.596;10.060;2023-07-13T09:06:09;8.63;;;3.33;;
1682;SDS011;13252;53.596;10.060;2023-07-13T09:08:43;8.73;;;2.77;;
1682;SDS011;13252;53.596;10.060;2023-07-13T09:11:22;7.60;;;2.77;;
1682;SDS011;13252;53.596;10.060;2023-07-13T09:13:57;12.50;;;2.50;;
1682;SDS011;13252;53.596;10.060;2023-07-13T09:16:28;10.10;;;2.43;;
1682;SDS011;13252;53.596;10.060;2023-07-13T09:18:56;10.10;;;2.80;;
1682;SDS011;13252;53.596;10.060;2023-07-13T09:21:28;17.30;;;5.73;;
1682;SDS011;13252;53.596;10.060;2023-07-13T09:24:01;7.50;;;2.27;;
1682;SDS011;13252;53.596;10.060;2023-07-13T09:26:49;12.53;;;3.00;;
1682;SDS011;13252;53.596;10.060;2023-07-13T09:29:20;9.07;;;2.97;;
1682;SDS011;13252;53.596;10.060;2023-07-13T09:31:52;12.87;;;2.60;;
1682;SDS011;13252;53.596;10.060;2023-07-13T09:34:25;8.67;;;2.87;;
1682;SDS011;13252;53.596;10.060;2023-07-13T09:36:53;11.60;;;3.10;;
1682;SDS011;13252;53.596;10.060;2023-07-13T09:39:21;7.73;;;2.70;;
1682;SDS011;13252;53.596;10.060;2023-07-13T09:41:53;10.53;;;3.30;;
1682;SDS011;13252;53.596;10.060;2023-07-13T09:44:29;12.30;;;3.00;;
1682;SDS011;13252;53.596;10.060;2023-07-13T09:46:58;6.83;;;2.53;;
1682;SDS011;13252;53.596;10.060;2023-07-13T09:49:26;5.70;;;2.90;;
1682;SDS011;13252;53.596;10.060;2023-07-13T09:51:59;5.63;;;2.50;;
1682;SDS011;13252;53.596;10.060;2023-07-13T09:54:28;7.30;;;2.67;;
1682;SDS011;13252;53.596;10.060;2023-07-13T09:56:56;8.53;;;2.47;;
1682;SDS011;13252;53.596;10.060;2023-07-13T09:59:26;8.83;;;3.23;;
1682;SDS011;13252;53.596;10.060;2023-07-13T10:01:56;16.50;;;3.40;;
1682;SDS011;13252;53.596;10.060;2023-07-13T10:04:27;16.97;;;3.67;;
1682;SDS011;13252;53.596;10.060;2023-07-13T10:07:04;9.47;;;3.50;;
1682;SDS011;13252;53.596;10.060;2023-07-13T10:09:53;8.23;;;3.00;;
1682;SDS011;13252;53.596;10.060;2023-07-13T10:12:21;11.80;;;3.00;;
1682;SDS011;13252;53.596;10.060;2023-07-13T10:14:52;8.77;;;3.20;;
1682;SDS011;13252;53.596;10.060;2023-07-13T10:17:42;5.70;;;2.23;;
1682;SDS011;13252;53.596;10.060;2023-07-13T10:20:11;7.00;;;2.80;;
1682;SDS011;13252;53.596;10.060;2023-07-13T10:22:41;7.00;;;2.70;;
1682;SDS011;13252;53.596;10.060;2023-07-13T10:25:16;7.50;;;2.30;;
1682;SDS011;13252;53.596;10.060;2023-07-13T10:27:45;10.10;;;3.50;;
1682;SDS011;13252;53.596;10.060;2023-07-13T10:30:17;7.40;;;2.57;;
1682;SDS011;13252;53.596;10.060;2023-07-13T10:32:47;7.23;;;2.20;;
1682;SDS011;13252;53.596;10.060;2023-07-13T10:35:15;9.30;;;2.63;;
1682;SDS011;13252;53.596;10.060;2023-07-13T10:37:48;4.30;;;2.07;;
1682;SDS011;13252;53.596;10.060;2023-07-13T10:40:18;8.87;;;2.80;;
1682;SDS011;13252;53.596;10.060;2023-07-13T10:42:51;7.03;;;2.97;;
1682;SDS011;13252;53.596;10.060;2023-07-13T10:45:22;10.40;;;2.40;;
1682;SDS011;13252;53.596;10.060;2023-07-13T10:47:51;8.70;;;2.90;;
1682;SDS011;13252;53.596;10.060;2023-07-13T10:50:23;3.83;;;1.83;;
1682;SDS011;13252;53.596;10.060;2023-07-13T10:52:52;5.67;;;2.30;;
1682;SDS011;13252;53.596;10.060;2023-07-13T10:55:34;6.90;;;2.60;;
1682;SDS011;13252;53.596;10.060;2023-07-13T10:58:11;7.80;;;2.27;;
1682;SDS011;13252;53.596;10.060;2023-07-13T11:00:48;7.17;;;2.40;;
1682;SDS011;13252;53.596;10.060;2023-07-13T11:03:17;6.57;;;1.93;;
1682;SDS011;13252;53.596;10.060;2023-07-13T11:05:49;6.83;;;2.10;;
1682;SDS011;13252;53.596;10.060;2023-07-13T11:08:19;3.93;;;2.00;;
1682;SDS011;13252;53.596;10.060;2023-07-13T11:10:50;7.27;;;2.37;;
1682;SDS011;13252;53.596;10.060;2023-07-13T11:13:39;6.83;;;3.30;;
1682;SDS011;13252;53.596;10.060;2023-07-13T11:16:35;5.27;;;1.90;;
1682;SDS011;13252;53.596;10.060;2023-07-13T11:19:24;9.40;;;2.10;;
1682;SDS011;13252;53.596;10.060;2023-07-13T11:22:10;7.07;;;2.07;;
1682;SDS011;13252;53.596;10.060;2023-07-13T11:27:50;7.80;;;2.37;;
1682;SDS011;13252;53.596;10.060;2023-07-13T11:30:21;7.93;;;2.77;;
1682;SDS011;13252;53.596;10.060;2023-07-13T11:33:04;5.93;;;2.43;;
1682;SDS011;13252;53.596;10.060;2023-07-13T11:35:41;6.80;;;2.00;;
1682;SDS011;13252;53.596;10.060;2023-07-13T11:38:14;6.07;;;2.17;;
1682;SDS011;13252;53.596;10.060;2023-07-13T11:40:45;4.93;;;1.70;;
1682;SDS011;13252;53.596;10.060;2023-07-13T11:43:21;7.23;;;1.70;;
1682;SDS011;13252;53.596;10.060;2023-07-13T11:45:50;8.60;;;2.43;;
1682;SDS011;13252;53.596;10.060;2023-07-13T11:48:23;5.57;;;1.97;;
1682;SDS011;13252;53.596;10.060;2023-07-13T11:50:54;7.90;;;1.87;;
1682;SDS011;13252;53.596;10.060;2023-07-13T11:53:26;8.00;;;2.03;;
1682;SDS011;13252;53.596;10.060;2023-07-13T11:55:56;7.03;;;2.40;;
1682;SDS011;13252;53.596;10.060;2023-07-13T11:58:24;8.40;;;2.23;;
1682;SDS011;13252;53.596;10.060;2023-07-13T12:00:55;5.70;;;1.93;;
1682;SDS011;13252;53.596;10.060;2023-07-13T12:03:28;6.43;;;2.20;;
1682;SDS011;13252;53.596;10.060;2023-07-13T12:06:00;7.73;;;2.50;;
1682;SDS011;13252;53.596;10.060;2023-07-13T12:08:28;5.03;;;1.60;;
1682;SDS011;13252;53.596;10.060;2023-07-13T12:10:57;5.23;;;2.07;;
1682;SDS011;13252;53.596;10.060;2023-07-13T12:13:34;12.20;;;2.83;;
1682;SDS011;13252;53.596;10.060;2023-07-13T12:16:08;5.83;;;2.17;;
1682;SDS011;13252;53.596;10.060;2023-07-13T12:18:40;6.37;;;2.20;;
1682;SDS011;13252;53.596;10.060;2023-07-13T12:21:12;5.57;;;1.83;;
1682;SDS011;13252;53.596;10.060;2023-07-13T12:25:36;6.43;;;2.05;;
